This is the latest recevied weather packets stored in our database for station/object KE5BM-13. If no packets are shown the sender has not sent any weather packets the latest 10 day(s).
| Time | Temp. | Humidity | Pressure | Rain* | Wind** | Luminosity | Snow |
|---|---|---|---|---|---|---|---|
| 1777656666 | 13.89° C | 53% | 1008.6 hPa | 0 mm | - | - | - |
| 1777656369 | 14.44° C | 52% | 1008.6 hPa | 0 mm | - | - | - |
| 1777656064 | 13.89° C | 54% | 1008.6 hPa | 0 mm | - | - | - |
| 1777655765 | 13.89° C | 54% | 1008.6 hPa | 0 mm | - | - | - |
| 1777655465 | 13.89° C | 54% | 1008.6 hPa | 0 mm | - | - | - |
| 1777655163 | 13.33° C | 56% | 1008.6 hPa | 0 mm | - | - | - |
| 1777654863 | 13.33° C | 56% | 1008.6 hPa | 0 mm | - | - | - |
| 1777654558 | 12.78° C | 58% | 1008.6 hPa | 0 mm | - | - | - |
| 1777654260 | 12.78° C | 59% | 1008.6 hPa | 0 mm | - | - | - |
| 1777653959 | 12.78° C | 57% | 1008.6 hPa | 0 mm | - | - | - |
| 1777653659 | 12.78° C | 59% | 1008.6 hPa | 0 mm | - | - | - |
| 1777653361 | 12.78° C | 60% | 1008.6 hPa | 0 mm | - | - | - |
| 1777653058 | 13.33° C | 57% | 1008.6 hPa | 0 mm | - | - | - |
| 1777652756 | 13.33° C | 60% | 1008.6 hPa | 0 mm | - | - | - |
| 1777652455 | 12.78° C | 59% | 1008.6 hPa | 0 mm | - | - | - |
| 1777652153 | 12.78° C | 60% | 1008.6 hPa | 0 mm | - | - | - |
| 1777651853 | 13.33° C | 58% | 1008.7 hPa | 0 mm | - | - | - |
| 1777651553 | 12.78° C | 61% | 1008.6 hPa | 0 mm | - | - | - |
| 1777651251 | 12.78° C | 61% | 1008.7 hPa | 0 mm | - | - | - |
| 1777650949 | 12.78° C | 61% | 1008.8 hPa | 0 mm | - | - | - |
| 1777650650 | 12.78° C | 63% | 1008.8 hPa | 0 mm | - | - | - |
| 1777650350 | 12.22° C | 63% | 1008.8 hPa | 0 mm | - | - | - |
| 1777650048 | 12.22° C | 63% | 1008.8 hPa | 0 mm | - | - | - |
| 1777649749 | 12.22° C | 65% | 1008.6 hPa | 0 mm | - | - | - |
| 1777649446 | 12.22° C | 65% | 1008.7 hPa | 0 mm | - | - | - |
* Rain latest hour (hover to see other rain measurements)
** Current wind speed in m/s (hover to see current wind gust speed)